createdAt,value
2023-05-14T00:00:16.450Z,13.02
2023-05-14T00:02:43.875Z,12.95
2023-05-14T00:05:11.136Z,13.13
2023-05-14T00:07:38.456Z,12.70
2023-05-14T00:10:06.138Z,12.07
2023-05-14T00:12:33.355Z,13.27
2023-05-14T00:15:00.885Z,12.48
2023-05-14T00:17:28.273Z,12.20
2023-05-14T00:19:55.605Z,12.30
2023-05-14T00:22:22.858Z,12.15
2023-05-14T00:24:50.102Z,12.65
2023-05-14T00:27:17.368Z,12.25
2023-05-14T00:29:45.824Z,12.98
2023-05-14T00:32:13.150Z,11.47
2023-05-14T00:34:40.440Z,12.13
2023-05-14T00:37:07.775Z,12.85
2023-05-14T00:39:35.028Z,11.98
2023-05-14T00:42:02.443Z,11.55
2023-05-14T00:44:29.751Z,11.70
2023-05-14T00:46:57.100Z,11.82
2023-05-14T00:49:24.361Z,12.85
2023-05-14T00:51:51.707Z,11.43
2023-05-14T00:54:19.054Z,11.93
2023-05-14T00:56:46.606Z,12.23
2023-05-14T00:59:14.030Z,12.50
2023-05-14T01:01:41.292Z,11.52
2023-05-14T01:04:08.620Z,11.30
2023-05-14T01:06:54.232Z,13.43
2023-05-14T01:09:24.549Z,11.83
2023-05-14T01:12:03.369Z,12.00
2023-05-14T01:14:57.356Z,11.77
2023-05-14T01:17:26.457Z,11.05
2023-05-14T01:19:53.688Z,12.30
2023-05-14T01:22:20.994Z,11.47
2023-05-14T01:24:48.244Z,11.80
2023-05-14T01:27:27.674Z,11.32
2023-05-14T01:30:29.839Z,11.73
2023-05-14T01:33:00.631Z,11.00
2023-05-14T01:35:29.429Z,11.10
2023-05-14T01:37:57.755Z,10.93
2023-05-14T01:40:25.631Z,11.07
2023-05-14T01:42:53.699Z,11.13
2023-05-14T01:45:21.654Z,11.35
2023-05-14T01:47:49.102Z,10.37
2023-05-14T01:50:16.800Z,10.73
2023-05-14T01:52:44.085Z,10.95
2023-05-14T01:55:11.504Z,11.43
2023-05-14T01:57:38.770Z,10.93
2023-05-14T02:00:07.118Z,11.17
2023-05-14T02:02:41.180Z,10.85
2023-05-14T02:05:11.352Z,10.90
2023-05-14T02:07:38.831Z,11.25
2023-05-14T02:10:06.845Z,9.93
2023-05-14T02:12:34.318Z,10.80
2023-05-14T02:15:01.750Z,10.45
2023-05-14T02:17:29.210Z,11.00
2023-05-14T02:19:56.484Z,11.00
2023-05-14T02:22:23.747Z,11.18
2023-05-14T02:24:51.600Z,10.73
2023-05-14T02:27:19.383Z,11.63
2023-05-14T02:29:46.617Z,11.13
2023-05-14T02:32:14.612Z,11.05
2023-05-14T02:34:41.868Z,10.70
2023-05-14T02:37:09.218Z,11.07
2023-05-14T02:39:36.499Z,11.00
2023-05-14T02:42:04.134Z,10.68
2023-05-14T02:44:32.489Z,10.77
2023-05-14T02:46:59.984Z,11.55
2023-05-14T02:49:27.233Z,10.27
2023-05-14T02:51:54.575Z,10.50
2023-05-14T02:54:21.829Z,10.45
2023-05-14T02:56:49.167Z,11.20
2023-05-14T02:59:16.462Z,10.93
2023-05-14T03:01:44.359Z,10.20
2023-05-14T03:04:12.094Z,10.32
2023-05-14T03:06:39.365Z,10.65
2023-05-14T03:09:07.680Z,10.60
2023-05-14T03:11:35.065Z,11.88
2023-05-14T03:14:02.308Z,10.13
2023-05-14T03:16:30.101Z,10.73
2023-05-14T03:18:57.364Z,11.57
2023-05-14T03:21:25.022Z,10.93
2023-05-14T03:23:53.036Z,11.85
2023-05-14T03:26:21.643Z,10.73
2023-05-14T03:28:48.950Z,11.23
2023-05-14T03:31:16.298Z,11.27
2023-05-14T03:33:43.684Z,11.73
2023-05-14T03:36:11.123Z,10.68
2023-05-14T03:38:38.399Z,12.00
2023-05-14T03:41:05.671Z,10.77
2023-05-14T03:43:32.873Z,11.82
2023-05-14T03:46:00.150Z,11.70
2023-05-14T03:48:27.813Z,12.15
2023-05-14T03:50:55.339Z,12.07
2023-05-14T03:53:22.588Z,11.02
2023-05-14T03:55:50.157Z,12.05
2023-05-14T03:58:17.547Z,12.18
2023-05-14T04:00:44.971Z,12.38
2023-05-14T04:03:12.499Z,12.10
2023-05-14T04:05:39.884Z,11.82
2023-05-14T04:08:07.316Z,11.43
2023-05-14T04:10:34.658Z,12.73
2023-05-14T04:13:01.835Z,12.18
2023-05-14T04:15:33.151Z,11.53
2023-05-14T04:18:00.471Z,11.88
2023-05-14T04:20:28.128Z,13.07
2023-05-14T04:22:55.832Z,12.43
2023-05-14T04:25:24.193Z,11.07
2023-05-14T04:27:51.464Z,11.77
2023-05-14T04:30:18.813Z,11.30
2023-05-14T04:32:46.240Z,11.85
2023-05-14T04:35:13.539Z,12.05
2023-05-14T04:37:41.533Z,12.13
2023-05-14T04:40:11.300Z,12.73
2023-05-14T04:42:38.975Z,12.65
2023-05-14T04:45:06.856Z,13.02
2023-05-14T04:47:34.318Z,12.10
2023-05-14T04:50:01.705Z,12.95
2023-05-14T04:52:29.020Z,12.23
2023-05-14T04:54:56.997Z,12.93
2023-05-14T04:57:24.352Z,12.85
2023-05-14T04:59:51.594Z,12.40
2023-05-14T05:02:18.906Z,13.02
2023-05-14T05:04:47.242Z,12.50
2023-05-14T05:07:14.745Z,11.18
2023-05-14T05:09:42.946Z,11.95
2023-05-14T05:12:10.569Z,12.88
2023-05-14T05:14:37.841Z,12.10
2023-05-14T05:17:05.242Z,12.30
2023-05-14T05:19:43.035Z,12.20
2023-05-14T05:22:11.869Z,12.20
2023-05-14T05:24:39.074Z,12.80
2023-05-14T05:27:06.366Z,12.27
2023-05-14T05:29:35.246Z,12.43
2023-05-14T05:32:02.575Z,12.70
2023-05-14T05:34:30.087Z,12.90
2023-05-14T05:36:57.430Z,12.13
2023-05-14T05:39:25.173Z,12.93
2023-05-14T05:41:52.498Z,13.33
2023-05-14T05:44:19.733Z,13.25
2023-05-14T05:46:47.036Z,12.65
2023-05-14T05:49:14.301Z,12.30
2023-05-14T05:51:41.630Z,12.30
2023-05-14T05:54:08.818Z,12.93
2023-05-14T05:56:36.096Z,13.10
2023-05-14T05:59:03.986Z,12.77
2023-05-14T06:01:31.482Z,11.63
2023-05-14T06:03:58.706Z,12.50
2023-05-14T06:06:26.056Z,11.37
2023-05-14T06:08:53.290Z,12.88
2023-05-14T06:11:21.905Z,12.35
2023-05-14T06:13:49.249Z,12.30
2023-05-14T06:16:16.667Z,12.25
2023-05-14T06:18:44.003Z,12.23
2023-05-14T06:21:11.429Z,11.43
2023-05-14T06:23:38.683Z,11.77
2023-05-14T06:26:06.061Z,10.93
2023-05-14T06:28:33.366Z,11.07
2023-05-14T06:31:00.812Z,10.87
2023-05-14T06:33:31.446Z,10.52
2023-05-14T06:36:03.615Z,11.35
2023-05-14T06:38:30.972Z,11.07
2023-05-14T06:40:58.200Z,11.40
2023-05-14T06:43:25.709Z,11.17
2023-05-14T06:45:52.980Z,11.27
2023-05-14T06:48:20.817Z,10.35
2023-05-14T06:50:48.545Z,11.63
2023-05-14T06:53:15.898Z,11.45
2023-05-14T06:55:43.184Z,11.03
2023-05-14T06:58:10.676Z,11.65
2023-05-14T07:00:37.896Z,12.18
2023-05-14T07:03:05.294Z,11.80
2023-05-14T07:05:32.672Z,11.23
2023-05-14T07:07:59.972Z,12.03
2023-05-14T07:10:27.242Z,10.73
2023-05-14T07:12:54.682Z,11.63
2023-05-14T07:15:21.857Z,10.07
2023-05-14T07:17:49.364Z,10.70
2023-05-14T07:20:16.666Z,12.33
2023-05-14T07:22:43.959Z,10.85
2023-05-14T07:25:11.205Z,10.80
2023-05-14T07:27:38.726Z,11.18
2023-05-14T07:30:07.351Z,10.63
2023-05-14T07:32:34.676Z,11.37
2023-05-14T07:35:01.958Z,10.85
2023-05-14T07:37:29.351Z,11.10
2023-05-14T07:39:56.648Z,11.88
2023-05-14T07:42:35.237Z,10.75
2023-05-14T07:45:04.363Z,11.07
2023-05-14T07:47:31.784Z,10.95
2023-05-14T07:49:59.373Z,10.43
2023-05-14T07:52:26.698Z,11.30
2023-05-14T07:54:54.126Z,11.00
2023-05-14T07:57:22.115Z,11.20
2023-05-14T07:59:49.608Z,10.52
2023-05-14T08:02:17.804Z,10.77
2023-05-14T08:04:45.466Z,10.27
2023-05-14T08:07:12.733Z,9.65
2023-05-14T08:09:39.993Z,10.60
2023-05-14T08:12:07.691Z,10.85
2023-05-14T08:14:35.095Z,10.50
2023-05-14T08:17:02.406Z,10.93
2023-05-14T08:19:29.677Z,10.45
2023-05-14T08:21:57.425Z,10.77
2023-05-14T08:24:24.809Z,10.65
2023-05-14T08:26:52.534Z,10.57
2023-05-14T08:29:19.828Z,10.63
2023-05-14T08:31:47.299Z,9.88
2023-05-14T08:34:14.627Z,9.70
2023-05-14T08:36:41.861Z,10.10
2023-05-14T08:39:09.253Z,10.15
2023-05-14T08:41:37.672Z,10.40
2023-05-14T08:44:15.045Z,10.52
2023-05-14T08:46:42.426Z,10.73
2023-05-14T08:49:25.455Z,11.02
2023-05-14T08:51:52.777Z,10.07
2023-05-14T08:54:22.504Z,9.90
2023-05-14T08:56:51.714Z,9.63
2023-05-14T08:59:19.773Z,9.53
2023-05-14T09:01:48.190Z,10.00
2023-05-14T09:04:16.172Z,10.35
2023-05-14T09:06:43.568Z,10.40
2023-05-14T09:09:11.479Z,10.25
2023-05-14T09:11:42.657Z,10.33
2023-05-14T09:14:10.103Z,9.60
2023-05-14T09:16:37.437Z,9.75
2023-05-14T09:19:05.459Z,10.48
2023-05-14T09:21:33.577Z,9.93
2023-05-14T09:24:01.060Z,9.23
2023-05-14T09:26:28.367Z,8.18
2023-05-14T09:28:56.444Z,8.00
2023-05-14T09:31:23.839Z,7.80
2023-05-14T09:33:51.732Z,7.97
2023-05-14T09:36:19.269Z,7.20
2023-05-14T09:38:46.643Z,6.43
2023-05-14T09:41:13.894Z,7.50
2023-05-14T09:43:41.191Z,7.90
2023-05-14T09:46:08.415Z,6.60
2023-05-14T09:48:35.703Z,6.83
2023-05-14T09:51:04.636Z,6.85
2023-05-14T09:53:33.067Z,7.50
2023-05-14T09:56:00.434Z,5.70
2023-05-14T09:58:27.731Z,6.85
2023-05-14T10:00:54.981Z,6.90
2023-05-14T10:03:22.250Z,7.45
2023-05-14T10:05:49.575Z,7.30
2023-05-14T10:08:26.785Z,6.78
2023-05-14T10:10:54.585Z,6.78
2023-05-14T10:13:24.184Z,6.87
2023-05-14T10:16:09.976Z,6.68
2023-05-14T10:18:42.942Z,6.07
2023-05-14T10:21:10.434Z,6.47
2023-05-14T10:23:38.050Z,6.20
2023-05-14T10:26:05.482Z,6.13
2023-05-14T10:28:32.729Z,4.75
2023-05-14T10:31:00.862Z,5.30
2023-05-14T10:33:28.288Z,5.10
2023-05-14T10:36:06.578Z,4.80
2023-05-14T10:38:34.373Z,5.33
2023-05-14T10:41:05.121Z,5.28
2023-05-14T10:43:37.139Z,5.35
2023-05-14T10:46:05.197Z,5.28
2023-05-14T10:48:32.875Z,5.68
2023-05-14T10:51:00.266Z,5.20
2023-05-14T10:53:34.851Z,5.18
2023-05-14T10:56:09.291Z,5.20
2023-05-14T10:58:40.539Z,5.97
2023-05-14T11:01:08.410Z,5.82
2023-05-14T11:03:41.172Z,5.73
2023-05-14T11:06:09.393Z,4.30
2023-05-14T11:08:37.018Z,5.35
2023-05-14T11:11:04.360Z,5.55
2023-05-14T11:13:31.573Z,5.10
2023-05-14T11:16:02.287Z,4.27
2023-05-14T11:18:40.923Z,4.57
2023-05-14T11:21:08.292Z,5.20
2023-05-14T11:23:35.506Z,5.43
2023-05-14T11:26:02.907Z,4.30
2023-05-14T11:28:30.177Z,4.87
2023-05-14T11:30:57.454Z,4.50
2023-05-14T11:33:24.824Z,4.50
2023-05-14T11:35:52.118Z,4.30
2023-05-14T11:38:19.952Z,3.70
2023-05-14T11:40:58.152Z,4.77
2023-05-14T11:43:26.277Z,4.05
2023-05-14T11:45:54.336Z,4.30
2023-05-14T11:48:22.177Z,4.18
2023-05-14T11:50:50.975Z,5.38
2023-05-14T11:53:30.091Z,5.60
2023-05-14T11:55:58.011Z,5.75
2023-05-14T11:58:25.649Z,4.90
2023-05-14T12:00:53.462Z,6.20
2023-05-14T12:03:26.608Z,5.22
2023-05-14T12:06:00.489Z,5.87
2023-05-14T12:08:31.505Z,6.18
2023-05-14T12:10:59.521Z,5.97
2023-05-14T12:13:27.916Z,7.00
2023-05-14T12:15:59.130Z,6.85
2023-05-14T12:18:27.576Z,5.67
2023-05-14T12:20:54.978Z,6.18
2023-05-14T12:23:26.932Z,6.15
2023-05-14T12:25:54.213Z,5.65
2023-05-14T12:28:23.244Z,6.18
2023-05-14T12:30:56.601Z,7.33
2023-05-14T12:33:24.350Z,5.00
2023-05-14T12:35:53.717Z,6.57
2023-05-14T12:38:21.081Z,8.73
2023-05-14T12:40:48.411Z,9.02
2023-05-14T12:43:15.745Z,6.67
2023-05-14T12:45:43.012Z,6.82
2023-05-14T12:48:10.398Z,7.13
2023-05-14T12:50:37.930Z,7.22
2023-05-14T12:53:05.730Z,7.85
2023-05-14T12:55:34.389Z,8.67
2023-05-14T12:58:01.648Z,10.02
2023-05-14T13:00:28.929Z,9.43
2023-05-14T13:02:56.303Z,10.48
2023-05-14T13:05:23.956Z,9.02
2023-05-14T13:07:52.762Z,9.00
2023-05-14T13:10:20.078Z,10.20
2023-05-14T13:12:47.403Z,8.90
2023-05-14T13:15:14.693Z,6.40
2023-05-14T13:17:42.097Z,6.30
2023-05-14T13:20:09.753Z,5.97
2023-05-14T13:22:37.026Z,7.30
2023-05-14T13:25:05.107Z,8.77
2023-05-14T13:27:32.470Z,8.23
2023-05-14T13:29:59.906Z,8.07
2023-05-14T13:32:27.298Z,6.97
2023-05-14T13:34:54.525Z,6.75
2023-05-14T13:37:21.812Z,6.75
2023-05-14T13:39:51.247Z,7.90
2023-05-14T13:42:18.765Z,5.93
2023-05-14T13:44:46.021Z,6.53
2023-05-14T13:47:13.361Z,4.95
2023-05-14T13:49:40.744Z,4.78
2023-05-14T13:52:07.981Z,5.38
2023-05-14T13:54:35.202Z,5.63
2023-05-14T13:57:02.509Z,5.47
2023-05-14T13:59:29.825Z,4.85
2023-05-14T14:01:57.222Z,5.07
2023-05-14T14:04:28.865Z,5.00
2023-05-14T14:06:56.407Z,5.70
2023-05-14T14:09:23.936Z,5.93
2023-05-14T14:11:51.315Z,6.43
2023-05-14T14:14:18.674Z,7.18
2023-05-14T14:16:46.072Z,4.65
2023-05-14T14:19:14.457Z,5.60
2023-05-14T14:21:43.385Z,5.30
2023-05-14T14:24:10.735Z,5.80
2023-05-14T14:26:38.060Z,6.40
2023-05-14T14:29:05.400Z,6.53
2023-05-14T14:31:32.691Z,5.63
2023-05-14T14:33:59.933Z,6.10
2023-05-14T14:36:27.238Z,6.85
2023-05-14T14:38:54.468Z,7.05
2023-05-14T14:41:22.383Z,7.40
2023-05-14T14:43:49.796Z,7.32
2023-05-14T14:46:17.215Z,7.33
2023-05-14T14:48:44.600Z,7.15
2023-05-14T14:51:12.145Z,8.13
2023-05-14T14:53:40.505Z,6.90
2023-05-14T14:56:07.832Z,7.57
2023-05-14T14:58:35.100Z,7.23
2023-05-14T15:01:02.489Z,6.75
2023-05-14T15:03:30.077Z,7.80
2023-05-14T15:05:57.622Z,7.63
2023-05-14T15:08:26.598Z,7.88
2023-05-14T15:10:54.975Z,8.13
2023-05-14T15:13:22.262Z,8.27
2023-05-14T15:15:50.420Z,7.45
2023-05-14T15:18:17.721Z,8.50
2023-05-14T15:20:45.039Z,8.05
2023-05-14T15:23:12.338Z,8.67
2023-05-14T15:25:39.830Z,9.10
2023-05-14T15:28:09.885Z,9.32
2023-05-14T15:30:37.383Z,8.18
2023-05-14T15:33:04.711Z,9.38
2023-05-14T15:35:32.108Z,9.10
2023-05-14T15:37:59.519Z,9.23
2023-05-14T15:40:27.400Z,9.52
2023-05-14T15:42:54.984Z,8.48
2023-05-14T15:45:22.334Z,7.90
2023-05-14T15:47:49.736Z,9.60
2023-05-14T15:50:17.190Z,9.15
2023-05-14T15:52:44.476Z,9.07
2023-05-14T15:55:11.941Z,8.65
2023-05-14T15:57:39.295Z,9.80
2023-05-14T16:00:11.184Z,8.87
2023-05-14T16:02:39.331Z,9.07
2023-05-14T16:05:07.368Z,9.07
2023-05-14T16:07:34.739Z,8.20
2023-05-14T16:10:02.165Z,9.35
2023-05-14T16:12:29.606Z,9.30
2023-05-14T16:14:57.711Z,10.10
2023-05-14T16:17:26.630Z,9.98
2023-05-14T16:19:56.309Z,10.00
2023-05-14T16:22:24.215Z,9.48
2023-05-14T16:24:51.436Z,10.10
2023-05-14T16:27:19.255Z,9.35
2023-05-14T16:29:47.039Z,9.15
2023-05-14T16:32:14.556Z,9.25
2023-05-14T16:34:41.947Z,9.98
2023-05-14T16:37:10.787Z,9.10
2023-05-14T16:39:39.924Z,8.80
2023-05-14T16:42:07.210Z,9.02
2023-05-14T16:44:34.487Z,10.13
2023-05-14T16:47:01.792Z,9.45
2023-05-14T16:49:29.155Z,9.40
2023-05-14T16:51:56.386Z,9.60
2023-05-14T16:54:23.839Z,10.30
2023-05-14T16:56:51.140Z,9.63
2023-05-14T16:59:18.544Z,9.55
2023-05-14T17:01:47.967Z,10.57
2023-05-14T17:04:15.687Z,10.88
2023-05-14T17:06:43.041Z,10.90
2023-05-14T17:09:10.396Z,11.23
2023-05-14T17:11:37.662Z,11.82
2023-05-14T17:14:05.032Z,10.83
2023-05-14T17:16:32.371Z,10.57
2023-05-14T17:18:59.737Z,10.40
2023-05-14T17:21:27.132Z,10.15
2023-05-14T17:23:54.511Z,10.15
2023-05-14T17:26:21.852Z,10.23
2023-05-14T17:28:49.211Z,10.38
2023-05-14T17:31:16.520Z,10.40
2023-05-14T17:33:44.022Z,10.75
2023-05-14T17:36:11.255Z,9.88
2023-05-14T17:38:39.155Z,10.60
2023-05-14T17:41:06.422Z,11.02
2023-05-14T17:43:33.733Z,11.05
2023-05-14T17:46:01.088Z,10.65
2023-05-14T17:48:28.489Z,11.30
2023-05-14T17:50:55.757Z,10.60
2023-05-14T17:53:23.101Z,11.35
2023-05-14T17:55:50.357Z,10.25
2023-05-14T17:58:17.688Z,10.48
2023-05-14T18:00:45.008Z,11.00
2023-05-14T18:03:14.279Z,11.27
2023-05-14T18:05:41.733Z,11.43
2023-05-14T18:08:09.803Z,11.27
2023-05-14T18:10:37.224Z,11.00
2023-05-14T18:13:04.656Z,10.57
2023-05-14T18:15:31.910Z,10.63
2023-05-14T18:17:59.263Z,10.57
2023-05-14T18:20:26.577Z,11.23
2023-05-14T18:22:53.925Z,10.82
2023-05-14T18:25:21.209Z,11.45
2023-05-14T18:27:48.546Z,10.57
2023-05-14T18:30:16.053Z,11.32
2023-05-14T18:32:44.596Z,11.40
2023-05-14T18:35:12.603Z,9.82
2023-05-14T18:37:40.179Z,10.05
2023-05-14T18:40:09.087Z,10.20
2023-05-14T18:42:36.441Z,10.30
2023-05-14T18:45:04.546Z,10.90
2023-05-14T18:47:32.790Z,10.90
2023-05-14T18:50:01.999Z,10.57
2023-05-14T18:52:29.817Z,10.00
2023-05-14T18:54:57.135Z,10.85
2023-05-14T18:57:24.479Z,10.77
2023-05-14T18:59:51.710Z,10.43
2023-05-14T19:02:19.000Z,9.90
2023-05-14T19:07:16.801Z,8.85
2023-05-14T19:09:44.041Z,9.05
2023-05-14T19:12:11.443Z,8.20
2023-05-14T19:14:38.658Z,8.77
2023-05-14T19:17:06.030Z,7.97
2023-05-14T19:19:33.247Z,7.75
2023-05-14T19:22:00.682Z,7.65
2023-05-14T19:24:27.909Z,8.15
2023-05-14T19:26:55.781Z,8.07
2023-05-14T19:29:23.057Z,7.57
2023-05-14T19:31:50.400Z,7.15
2023-05-14T19:34:17.636Z,7.43
2023-05-14T19:36:44.956Z,7.03
2023-05-14T19:39:12.265Z,6.85
2023-05-14T19:41:39.661Z,6.90
2023-05-14T19:44:06.933Z,6.88
2023-05-14T19:46:34.303Z,7.50
2023-05-14T19:49:01.602Z,7.78
2023-05-14T19:51:28.943Z,7.97
2023-05-14T19:53:56.207Z,7.67
2023-05-14T19:56:24.740Z,7.60
2023-05-14T19:58:54.001Z,8.38
2023-05-14T20:01:21.309Z,7.47
2023-05-14T20:03:48.704Z,7.57
2023-05-14T20:06:17.459Z,7.33
2023-05-14T20:08:47.544Z,7.25
2023-05-14T20:11:15.815Z,7.45
2023-05-14T20:13:43.093Z,7.90
2023-05-14T20:16:10.619Z,7.88
2023-05-14T20:18:37.945Z,7.23
2023-05-14T20:21:05.626Z,7.47
2023-05-14T20:23:33.706Z,7.68
2023-05-14T20:26:04.159Z,7.47
2023-05-14T20:28:31.575Z,7.40
2023-05-14T20:30:59.129Z,8.33
2023-05-14T20:33:27.213Z,8.10
2023-05-14T20:35:54.436Z,7.22
2023-05-14T20:38:22.046Z,7.50
2023-05-14T20:40:49.339Z,7.20
2023-05-14T20:43:16.656Z,6.90
2023-05-14T20:45:43.900Z,7.00
2023-05-14T20:48:15.011Z,7.45
2023-05-14T20:50:43.056Z,7.28
2023-05-14T20:53:10.392Z,7.20
2023-05-14T20:55:37.739Z,6.70
2023-05-14T20:58:04.985Z,6.45
2023-05-14T21:00:32.260Z,6.30
2023-05-14T21:03:02.430Z,6.57
2023-05-14T21:05:29.815Z,6.30
2023-05-14T21:07:57.080Z,6.57
2023-05-14T21:10:24.722Z,6.72
2023-05-14T21:12:52.475Z,6.13
2023-05-14T21:15:19.778Z,6.13
2023-05-14T21:17:47.043Z,6.82
2023-05-14T21:20:15.666Z,6.77
2023-05-14T21:22:42.957Z,5.93
2023-05-14T21:25:10.429Z,6.60
2023-05-14T21:27:37.722Z,6.40
2023-05-14T21:30:05.646Z,6.75
2023-05-14T21:32:33.006Z,6.30
2023-05-14T21:35:00.482Z,6.03
2023-05-14T21:37:27.696Z,6.10
2023-05-14T21:39:55.199Z,6.30
2023-05-14T21:42:22.435Z,6.38
2023-05-14T21:44:49.770Z,6.80
2023-05-14T21:47:16.991Z,5.93
2023-05-14T21:49:44.340Z,6.80
2023-05-14T21:52:11.734Z,6.43
2023-05-14T21:54:39.057Z,6.53
2023-05-14T21:57:06.552Z,6.67
2023-05-14T21:59:34.017Z,7.03
2023-05-14T22:04:31.379Z,7.25
2023-05-14T22:06:58.643Z,7.32
2023-05-14T22:09:25.994Z,7.30
2023-05-14T22:11:53.268Z,7.13
2023-05-14T22:14:20.679Z,7.63
2023-05-14T22:16:47.943Z,7.20
2023-05-14T22:19:18.460Z,7.72
2023-05-14T22:21:45.898Z,7.43
2023-05-14T22:24:13.131Z,6.55
2023-05-14T22:26:40.389Z,7.00
2023-05-14T22:29:07.698Z,6.80
2023-05-14T22:31:35.159Z,7.03
2023-05-14T22:34:02.444Z,7.70
2023-05-14T22:36:29.772Z,7.68
2023-05-14T22:38:57.031Z,6.95
2023-05-14T22:41:24.412Z,7.28
2023-05-14T22:43:51.705Z,7.43
2023-05-14T22:46:19.098Z,7.67
2023-05-14T22:48:49.021Z,7.70
2023-05-14T22:51:16.688Z,7.78
2023-05-14T22:53:43.939Z,7.30
2023-05-14T22:56:11.259Z,7.35
2023-05-14T22:58:38.487Z,7.03
2023-05-14T23:01:06.043Z,7.00
2023-05-14T23:03:33.287Z,7.55
2023-05-14T23:06:00.543Z,6.85
2023-05-14T23:08:27.797Z,6.85
2023-05-14T23:10:55.177Z,6.73
2023-05-14T23:13:22.445Z,6.88
2023-05-14T23:15:49.763Z,7.00
2023-05-14T23:18:17.327Z,6.38
2023-05-14T23:20:44.783Z,6.75
2023-05-14T23:23:12.050Z,6.37
2023-05-14T23:25:39.382Z,6.28
2023-05-14T23:28:06.655Z,6.80
2023-05-14T23:30:33.962Z,6.90
2023-05-14T23:33:02.501Z,6.32
2023-05-14T23:35:29.811Z,6.23
2023-05-14T23:37:57.038Z,6.30
2023-05-14T23:40:24.319Z,6.18
2023-05-14T23:42:51.575Z,6.20
2023-05-14T23:45:18.872Z,5.43
2023-05-14T23:47:46.240Z,5.77
2023-05-14T23:50:13.635Z,6.00
2023-05-14T23:52:40.859Z,5.53
2023-05-14T23:55:08.457Z,5.25
2023-05-14T23:57:35.728Z,5.28
